National Weather Service United States Department of Commerce

Severe Storms; Fire Danger; and Strong Pacific Storms

More strong storms on tap for the Pacific Northwest this weekend. Heavy rains could produce flooding and mudslides. Saturday, a cold front moving into the central U.S. will bring potential for severe thunderstorms containing damaging winds, large hail, and isolated tornadoes; and localized flooding potential. Dry winds in southwestern California will keep fire weather threats high. Read More >

                                      ZTL Airspace Summary / KGSO TAF                    For ATC Planning Purposes Only
ZTL Airspace Summary:
High pressure will continue to dominate the airspace. Expect VFR conditions under SCT/BKN cirrus clouds after patchy LIFR/MVFR fog burns off by 14-15z. Surface winds will be mainly northeast to southeast at 3-10kts and frequently calm. Flight Hazards: MOD turbulence between FL300-410 over TN and N AL until 15z.

Updated:10/21/2017 6:05 AM
 

Greensboro Terminal Aerodrome Forecast:
 
FTUS80 KGSO 211121 RRH
KGSO 211120Z 2112/2212 06003KT P6SM FEW250

 

GSO METAR:  
SAUS80 KGSO 211600
METAR KGSO 211554Z VRB05KT 10SM BKN250 22/11 A3035 RMK AO2 SLP270
     T02220111

Go to KGSO TAF TDA
Go to KGSO TAF TDA

GSO TRACON HAZARDS
GSO TRACON: SFC-12000
AVG CIG BASE WHERE REPORTED BLW 10000FT: NONE REPORTED
LOWEST REPORTED CIG: NONE REPORTED
LOWEST REPORTED FLIGHT CAT: VFR
METARS:
KGSO 211554Z VRB05KT 10SM BKN250 22/11 A3035 RMK AO2 SLP270 T02220111
KBUY 211554Z AUTO VRB04KT 10SM CLR 23/12 A3035 RMK AO2 SLP273 T02330117
KMWK 211545Z AUTO 16003KT 10SM CLR 22/10 A3038 RMK AO2 T02170104
KHBI 211555Z AUTO 12003KT 10SM CLR 22/11 A3036 RMK AO2 T02190109
KINT 211554Z VRB04KT 10SM CLR 22/11 A3036 RMK AO2 SLP274 T02220111
KSCR 211540Z AUTO 08005KT 10SM CLR 23/11 A3034 RMK AO2 T02310113
KEXX 211540Z AUTO 00000KT 10SM CLR 22/12 A3034 RMK AO2 T02240121
KSIF 211545Z AUTO 00000KT 10SM CLR 21/09 A3036 RMK AO2 T02070093
KMTV 211555Z AUTO 00000KT 10SM CLR 22/11 A3038 RMK AO2 T02150108

GSO TRACON HAZARD

Forecast Surface Map Loop / Collaborative Convective Forecast Product / Vertical Wind Profile
Weather Map

 

AIRMETs & SIGMETS/ Southeast Radar loop / Satellite Image (click on image to enlarge)
  Weather Map Southeast Radar Loop

satellite